sensor_id;sensor_type;location;lat;lon;timestamp;temperature;humidity
15184;DHT22;7693;49.266;7.104;2024-02-16T05:22:27;11.60;99.90
15184;DHT22;7693;49.266;7.104;2024-02-16T05:24:52;11.70;99.90
15184;DHT22;7693;49.266;7.104;2024-02-16T05:27:18;11.70;99.90
15184;DHT22;7693;49.266;7.104;2024-02-16T05:29:44;11.70;99.90
15184;DHT22;7693;49.266;7.104;2024-02-16T05:32:10;11.70;99.90
15184;DHT22;7693;49.266;7.104;2024-02-16T05:34:38;11.70;99.90
15184;DHT22;7693;49.266;7.104;2024-02-16T05:37:05;11.70;99.90
15184;DHT22;7693;49.266;7.104;2024-02-16T05:39:32;11.70;99.90
15184;DHT22;7693;49.266;7.104;2024-02-16T05:42:00;11.70;99.90
15184;DHT22;7693;49.266;7.104;2024-02-16T05:44:27;11.70;99.90
15184;DHT22;7693;49.266;7.104;2024-02-16T05:46:52;11.70;99.90
15184;DHT22;7693;49.266;7.104;2024-02-16T05:49:18;11.70;99.90
15184;DHT22;7693;49.266;7.104;2024-02-16T05:51:44;11.80;99.90
15184;DHT22;7693;49.266;7.104;2024-02-16T05:54:32;11.80;99.90
15184;DHT22;7693;49.266;7.104;2024-02-16T05:56:58;11.80;99.90
15184;DHT22;7693;49.266;7.104;2024-02-16T05:59:24;11.80;99.90
15184;DHT22;7693;49.266;7.104;2024-02-16T06:01:50;11.80;99.90
15184;DHT22;7693;49.266;7.104;2024-02-16T06:04:16;11.80;99.90
15184;DHT22;7693;49.266;7.104;2024-02-16T06:06:42;11.80;99.90
15184;DHT22;7693;49.266;7.104;2024-02-16T06:09:07;11.80;99.90
15184;DHT22;7693;49.266;7.104;2024-02-16T06:11:35;11.80;99.90
15184;DHT22;7693;49.266;7.104;2024-02-16T06:14:01;11.80;99.90
15184;DHT22;7693;49.266;7.104;2024-02-16T06:16:28;11.80;99.90
15184;DHT22;7693;49.266;7.104;2024-02-16T06:18:53;11.80;99.90
15184;DHT22;7693;49.266;7.104;2024-02-16T06:21:19;11.80;99.90
15184;DHT22;7693;49.266;7.104;2024-02-16T06:23:44;11.80;99.90
15184;DHT22;7693;49.266;7.104;2024-02-16T06:26:10;11.80;99.90
15184;DHT22;7693;49.266;7.104;2024-02-16T06:28:36;11.80;99.90
15184;DHT22;7693;49.266;7.104;2024-02-16T06:31:01;11.70;99.90
15184;DHT22;7693;49.266;7.104;2024-02-16T06:33:27;11.70;99.90
15184;DHT22;7693;49.266;7.104;2024-02-16T06:35:52;11.70;99.90
15184;DHT22;7693;49.266;7.104;2024-02-16T06:38:18;11.70;99.90
15184;DHT22;7693;49.266;7.104;2024-02-16T06:40:44;11.80;99.90
15184;DHT22;7693;49.266;7.104;2024-02-16T06:43:09;11.80;99.90
15184;DHT22;7693;49.266;7.104;2024-02-16T06:45:35;11.80;99.90
15184;DHT22;7693;49.266;7.104;2024-02-16T06:48:02;11.80;99.90
15184;DHT22;7693;49.266;7.104;2024-02-16T06:50:27;11.80;99.90
15184;DHT22;7693;49.266;7.104;2024-02-16T06:52:53;11.80;99.90
15184;DHT22;7693;49.266;7.104;2024-02-16T06:55:20;11.80;99.90
15184;DHT22;7693;49.266;7.104;2024-02-16T06:57:46;11.80;99.90
15184;DHT22;7693;49.266;7.104;2024-02-16T07:00:12;11.80;99.90
15184;DHT22;7693;49.266;7.104;2024-02-16T07:02:38;11.80;99.90
15184;DHT22;7693;49.266;7.104;2024-02-16T07:05:06;11.80;99.90
15184;DHT22;7693;49.266;7.104;2024-02-16T07:07:32;11.80;99.90
15184;DHT22;7693;49.266;7.104;2024-02-16T07:10:01;11.80;99.90
15184;DHT22;7693;49.266;7.104;2024-02-16T07:12:27;11.80;99.90
15184;DHT22;7693;49.266;7.104;2024-02-16T07:14:53;11.80;99.90
15184;DHT22;7693;49.266;7.104;2024-02-16T07:17:19;11.80;99.90
15184;DHT22;7693;49.266;7.104;2024-02-16T07:19:44;11.80;99.90
15184;DHT22;7693;49.266;7.104;2024-02-16T07:22:10;11.80;99.90
15184;DHT22;7693;49.266;7.104;2024-02-16T07:24:38;11.80;99.90
15184;DHT22;7693;49.266;7.104;2024-02-16T07:27:03;11.80;99.90
15184;DHT22;7693;49.266;7.104;2024-02-16T07:29:29;11.80;99.90
15184;DHT22;7693;49.266;7.104;2024-02-16T07:31:55;11.80;99.90
15184;DHT22;7693;49.266;7.104;2024-02-16T07:34:21;11.80;99.90
15184;DHT22;7693;49.266;7.104;2024-02-16T07:36:47;11.80;99.90
15184;DHT22;7693;49.266;7.104;2024-02-16T07:39:13;11.90;99.90
15184;DHT22;7693;49.266;7.104;2024-02-16T07:41:39;11.90;99.90
15184;DHT22;7693;49.266;7.104;2024-02-16T07:44:04;11.90;99.90
15184;DHT22;7693;49.266;7.104;2024-02-16T07:46:30;11.90;99.90
15184;DHT22;7693;49.266;7.104;2024-02-16T07:48:56;11.90;99.90
15184;DHT22;7693;49.266;7.104;2024-02-16T07:51:21;11.90;99.90
15184;DHT22;7693;49.266;7.104;2024-02-16T07:53:47;11.90;99.90
15184;DHT22;7693;49.266;7.104;2024-02-16T07:56:13;11.90;99.90
15184;DHT22;7693;49.266;7.104;2024-02-16T07:58:41;12.00;99.90
15184;DHT22;7693;49.266;7.104;2024-02-16T08:01:08;12.00;99.90
15184;DHT22;7693;49.266;7.104;2024-02-16T08:03:35;12.00;99.90
15184;DHT22;7693;49.266;7.104;2024-02-16T08:06:01;12.00;99.90
15184;DHT22;7693;49.266;7.104;2024-02-16T08:08:27;12.00;99.90
15184;DHT22;7693;49.266;7.104;2024-02-16T08:10:52;12.00;99.90
15184;DHT22;7693;49.266;7.104;2024-02-16T08:13:18;12.10;99.90
15184;DHT22;7693;49.266;7.104;2024-02-16T08:15:44;12.10;99.90
15184;DHT22;7693;49.266;7.104;2024-02-16T08:18:10;12.10;99.90
15184;DHT22;7693;49.266;7.104;2024-02-16T08:20:37;12.10;99.90
15184;DHT22;7693;49.266;7.104;2024-02-16T08:23:03;12.20;99.90
15184;DHT22;7693;49.266;7.104;2024-02-16T08:25:28;12.20;99.90
15184;DHT22;7693;49.266;7.104;2024-02-16T08:27:55;12.20;99.90
15184;DHT22;7693;49.266;7.104;2024-02-16T08:30:21;12.30;99.90
15184;DHT22;7693;49.266;7.104;2024-02-16T08:32:47;12.30;99.90
15184;DHT22;7693;49.266;7.104;2024-02-16T08:35:13;12.30;99.90
15184;DHT22;7693;49.266;7.104;2024-02-16T08:37:40;12.40;99.90
15184;DHT22;7693;49.266;7.104;2024-02-16T08:40:06;12.40;99.90
15184;DHT22;7693;49.266;7.104;2024-02-16T08:42:32;12.50;99.90
15184;DHT22;7693;49.266;7.104;2024-02-16T08:44:58;12.50;99.90
15184;DHT22;7693;49.266;7.104;2024-02-16T08:47:26;12.60;99.90
15184;DHT22;7693;49.266;7.104;2024-02-16T08:49:51;12.60;99.90
15184;DHT22;7693;49.266;7.104;2024-02-16T08:52:17;12.70;99.90
15184;DHT22;7693;49.266;7.104;2024-02-16T08:54:43;12.70;99.90
15184;DHT22;7693;49.266;7.104;2024-02-16T08:57:09;12.80;99.90
15184;DHT22;7693;49.266;7.104;2024-02-16T08:59:35;12.80;99.90
15184;DHT22;7693;49.266;7.104;2024-02-16T09:02:01;12.90;99.90
15184;DHT22;7693;49.266;7.104;2024-02-16T09:04:26;12.90;99.90
15184;DHT22;7693;49.266;7.104;2024-02-16T09:06:52;13.00;99.90
15184;DHT22;7693;49.266;7.104;2024-02-16T09:09:18;13.10;99.90
15184;DHT22;7693;49.266;7.104;2024-02-16T09:11:44;13.20;99.90
15184;DHT22;7693;49.266;7.104;2024-02-16T09:14:10;13.30;99.90
15184;DHT22;7693;49.266;7.104;2024-02-16T09:16:35;13.40;99.90
15184;DHT22;7693;49.266;7.104;2024-02-16T09:19:02;13.40;99.90
15184;DHT22;7693;49.266;7.104;2024-02-16T09:21:27;13.40;99.90
15184;DHT22;7693;49.266;7.104;2024-02-16T09:23:55;13.50;99.90
15184;DHT22;7693;49.266;7.104;2024-02-16T09:26:24;13.50;99.90
15184;DHT22;7693;49.266;7.104;2024-02-16T09:28:52;13.60;99.90
15184;DHT22;7693;49.266;7.104;2024-02-16T09:31:18;13.60;99.90
15184;DHT22;7693;49.266;7.104;2024-02-16T09:33:44;13.70;99.90
15184;DHT22;7693;49.266;7.104;2024-02-16T09:36:10;13.70;99.90
15184;DHT22;7693;49.266;7.104;2024-02-16T09:38:36;13.70;99.90
15184;DHT22;7693;49.266;7.104;2024-02-16T09:41:02;13.70;99.90
15184;DHT22;7693;49.266;7.104;2024-02-16T09:43:30;13.70;99.90
15184;DHT22;7693;49.266;7.104;2024-02-16T09:45:56;13.80;99.90
15184;DHT22;7693;49.266;7.104;2024-02-16T09:48:25;13.80;99.90
15184;DHT22;7693;49.266;7.104;2024-02-16T09:50:53;13.80;99.90
15184;DHT22;7693;49.266;7.104;2024-02-16T09:53:19;13.90;99.90
15184;DHT22;7693;49.266;7.104;2024-02-16T09:55:49;13.90;99.90
15184;DHT22;7693;49.266;7.104;2024-02-16T09:58:17;13.90;99.90
15184;DHT22;7693;49.266;7.104;2024-02-16T10:00:54;13.90;99.90
15184;DHT22;7693;49.266;7.104;2024-02-16T10:03:29;13.90;99.90
15184;DHT22;7693;49.266;7.104;2024-02-16T10:06:10;13.90;99.90
15184;DHT22;7693;49.266;7.104;2024-02-16T10:08:52;13.90;99.90
15184;DHT22;7693;49.266;7.104;2024-02-16T10:11:19;13.90;99.90
15184;DHT22;7693;49.266;7.104;2024-02-16T10:14:01;13.90;99.90
15184;DHT22;7693;49.266;7.104;2024-02-16T10:16:28;13.90;99.90
15184;DHT22;7693;49.266;7.104;2024-02-16T10:19:04;13.90;99.90
15184;DHT22;7693;49.266;7.104;2024-02-16T10:21:30;14.00;99.90
15184;DHT22;7693;49.266;7.104;2024-02-16T10:24:21;14.00;99.90
15184;DHT22;7693;49.266;7.104;2024-02-16T10:26:46;14.00;99.90
15184;DHT22;7693;49.266;7.104;2024-02-16T10:29:14;14.10;99.90
15184;DHT22;7693;49.266;7.104;2024-02-16T10:31:42;14.10;99.90
15184;DHT22;7693;49.266;7.104;2024-02-16T10:34:08;14.10;99.90
15184;DHT22;7693;49.266;7.104;2024-02-16T10:36:38;14.10;99.90
15184;DHT22;7693;49.266;7.104;2024-02-16T10:39:05;14.10;99.90
15184;DHT22;7693;49.266;7.104;2024-02-16T10:41:36;14.10;99.90
15184;DHT22;7693;49.266;7.104;2024-02-16T10:44:04;14.00;99.90
15184;DHT22;7693;49.266;7.104;2024-02-16T10:46:31;14.00;99.90
15184;DHT22;7693;49.266;7.104;2024-02-16T10:48:58;14.00;99.90
15184;DHT22;7693;49.266;7.104;2024-02-16T10:51:35;14.00;99.90
15184;DHT22;7693;49.266;7.104;2024-02-16T10:54:04;14.00;99.90
15184;DHT22;7693;49.266;7.104;2024-02-16T10:56:38;14.00;99.90
15184;DHT22;7693;49.266;7.104;2024-02-16T14:50:00;13.90;99.90
15184;DHT22;7693;49.266;7.104;2024-02-16T14:52:25;13.90;99.90
15184;DHT22;7693;49.266;7.104;2024-02-16T14:54:51;13.90;99.90
15184;DHT22;7693;49.266;7.104;2024-02-16T14:57:16;13.90;99.90
15184;DHT22;7693;49.266;7.104;2024-02-16T14:59:45;13.90;99.90
15184;DHT22;7693;49.266;7.104;2024-02-16T15:02:11;13.90;99.90
15184;DHT22;7693;49.266;7.104;2024-02-16T15:04:37;13.90;99.90
15184;DHT22;7693;49.266;7.104;2024-02-16T15:07:02;13.90;99.90
15184;DHT22;7693;49.266;7.104;2024-02-16T15:09:29;13.90;99.90
15184;DHT22;7693;49.266;7.104;2024-02-16T15:11:55;13.90;99.90
15184;DHT22;7693;49.266;7.104;2024-02-16T15:14:21;13.90;99.90
15184;DHT22;7693;49.266;7.104;2024-02-16T15:16:46;13.90;99.90
15184;DHT22;7693;49.266;7.104;2024-02-16T15:19:12;13.90;99.90
15184;DHT22;7693;49.266;7.104;2024-02-16T15:21:37;13.90;99.90
15184;DHT22;7693;49.266;7.104;2024-02-16T15:24:03;13.80;99.90
15184;DHT22;7693;49.266;7.104;2024-02-16T15:26:29;13.80;99.90
15184;DHT22;7693;49.266;7.104;2024-02-16T15:28:55;13.80;99.90
15184;DHT22;7693;49.266;7.104;2024-02-16T15:31:21;13.80;99.90
15184;DHT22;7693;49.266;7.104;2024-02-16T15:33:46;13.70;99.90
15184;DHT22;7693;49.266;7.104;2024-02-16T15:36:12;13.70;99.90
15184;DHT22;7693;49.266;7.104;2024-02-16T15:38:37;13.60;99.90
15184;DHT22;7693;49.266;7.104;2024-02-16T15:41:03;13.60;99.90
15184;DHT22;7693;49.266;7.104;2024-02-16T15:43:29;13.50;99.90
15184;DHT22;7693;49.266;7.104;2024-02-16T15:45:54;13.50;99.90
15184;DHT22;7693;49.266;7.104;2024-02-16T15:48:20;13.50;99.90
15184;DHT22;7693;49.266;7.104;2024-02-16T15:50:46;13.50;99.90
15184;DHT22;7693;49.266;7.104;2024-02-16T15:53:11;13.40;99.90
15184;DHT22;7693;49.266;7.104;2024-02-16T15:55:37;13.40;99.90
15184;DHT22;7693;49.266;7.104;2024-02-16T15:58:03;13.40;99.90
15184;DHT22;7693;49.266;7.104;2024-02-16T16:00:28;13.40;99.90
15184;DHT22;7693;49.266;7.104;2024-02-16T16:02:54;13.30;99.90
15184;DHT22;7693;49.266;7.104;2024-02-16T16:05:20;13.30;99.90
15184;DHT22;7693;49.266;7.104;2024-02-16T16:07:46;13.30;99.90
15184;DHT22;7693;49.266;7.104;2024-02-16T16:10:12;13.30;99.90
15184;DHT22;7693;49.266;7.104;2024-02-16T16:12:38;13.20;99.90
15184;DHT22;7693;49.266;7.104;2024-02-16T16:15:04;13.20;99.90
15184;DHT22;7693;49.266;7.104;2024-02-16T16:17:30;13.10;99.90
15184;DHT22;7693;49.266;7.104;2024-02-16T16:19:56;13.00;99.90
15184;DHT22;7693;49.266;7.104;2024-02-16T16:22:22;12.90;99.90
15184;DHT22;7693;49.266;7.104;2024-02-16T16:24:48;12.90;99.90
15184;DHT22;7693;49.266;7.104;2024-02-16T16:27:13;12.80;99.90
15184;DHT22;7693;49.266;7.104;2024-02-16T16:29:39;12.80;99.90
15184;DHT22;7693;49.266;7.104;2024-02-16T16:32:06;12.70;99.90
15184;DHT22;7693;49.266;7.104;2024-02-16T16:34:32;12.70;99.90
15184;DHT22;7693;49.266;7.104;2024-02-16T16:36:57;12.70;99.90
15184;DHT22;7693;49.266;7.104;2024-02-16T16:39:23;12.60;99.90
15184;DHT22;7693;49.266;7.104;2024-02-16T16:41:50;12.60;99.90
15184;DHT22;7693;49.266;7.104;2024-02-16T16:44:16;12.60;99.90
15184;DHT22;7693;49.266;7.104;2024-02-16T16:46:44;12.60;99.90
15184;DHT22;7693;49.266;7.104;2024-02-16T16:49:10;12.50;99.90
15184;DHT22;7693;49.266;7.104;2024-02-16T16:51:35;12.50;99.90
15184;DHT22;7693;49.266;7.104;2024-02-16T16:54:01;12.50;99.90
15184;DHT22;7693;49.266;7.104;2024-02-16T16:56:27;12.50;99.90
15184;DHT22;7693;49.266;7.104;2024-02-16T16:58:53;12.50;99.90
15184;DHT22;7693;49.266;7.104;2024-02-16T17:01:18;12.40;99.90
15184;DHT22;7693;49.266;7.104;2024-02-16T17:03:45;12.40;99.90
15184;DHT22;7693;49.266;7.104;2024-02-16T17:06:10;12.40;99.90
15184;DHT22;7693;49.266;7.104;2024-02-16T17:08:36;12.40;99.90
15184;DHT22;7693;49.266;7.104;2024-02-16T17:11:03;12.30;99.90
15184;DHT22;7693;49.266;7.104;2024-02-16T17:13:29;12.30;99.90
15184;DHT22;7693;49.266;7.104;2024-02-16T17:15:54;12.30;99.90
15184;DHT22;7693;49.266;7.104;2024-02-16T17:18:20;12.20;99.90
15184;DHT22;7693;49.266;7.104;2024-02-16T17:20:46;12.20;99.90
15184;DHT22;7693;49.266;7.104;2024-02-16T17:23:13;12.20;99.90
15184;DHT22;7693;49.266;7.104;2024-02-16T17:25:39;12.20;99.90
15184;DHT22;7693;49.266;7.104;2024-02-16T17:28:04;12.20;99.90
15184;DHT22;7693;49.266;7.104;2024-02-16T17:30:32;12.10;99.90
15184;DHT22;7693;49.266;7.104;2024-02-16T17:32:59;12.10;99.90
15184;DHT22;7693;49.266;7.104;2024-02-16T17:35:25;12.10;99.90
15184;DHT22;7693;49.266;7.104;2024-02-16T17:37:52;12.10;99.90
15184;DHT22;7693;49.266;7.104;2024-02-16T17:40:19;12.10;99.90
15184;DHT22;7693;49.266;7.104;2024-02-16T17:42:44;12.10;99.90
15184;DHT22;7693;49.266;7.104;2024-02-16T17:45:12;12.10;99.90
15184;DHT22;7693;49.266;7.104;2024-02-16T17:47:38;12.00;99.90
15184;DHT22;7693;49.266;7.104;2024-02-16T17:50:04;12.10;99.90
15184;DHT22;7693;49.266;7.104;2024-02-16T17:52:30;12.00;99.90
15184;DHT22;7693;49.266;7.104;2024-02-16T17:54:57;12.00;99.90
15184;DHT22;7693;49.266;7.104;2024-02-16T17:57:25;12.00;99.90
15184;DHT22;7693;49.266;7.104;2024-02-16T17:59:50;12.00;99.90
15184;DHT22;7693;49.266;7.104;2024-02-16T18:02:18;12.00;99.90
15184;DHT22;7693;49.266;7.104;2024-02-16T18:04:44;12.00;99.90
15184;DHT22;7693;49.266;7.104;2024-02-16T18:07:10;12.00;99.90
15184;DHT22;7693;49.266;7.104;2024-02-16T18:09:46;12.00;99.90
15184;DHT22;7693;49.266;7.104;2024-02-16T18:12:12;12.00;99.90
15184;DHT22;7693;49.266;7.104;2024-02-16T18:14:44;12.00;99.90
15184;DHT22;7693;49.266;7.104;2024-02-16T18:17:11;12.00;99.90
15184;DHT22;7693;49.266;7.104;2024-02-16T18:19:38;11.90;99.90
15184;DHT22;7693;49.266;7.104;2024-02-16T18:22:05;11.90;99.90
15184;DHT22;7693;49.266;7.104;2024-02-16T18:24:31;11.90;99.90
15184;DHT22;7693;49.266;7.104;2024-02-16T18:26:57;11.90;99.90
15184;DHT22;7693;49.266;7.104;2024-02-16T18:29:23;11.90;99.90
15184;DHT22;7693;49.266;7.104;2024-02-16T18:31:50;11.90;99.90
15184;DHT22;7693;49.266;7.104;2024-02-16T18:34:16;11.90;99.90
15184;DHT22;7693;49.266;7.104;2024-02-16T18:36:41;11.90;99.90
15184;DHT22;7693;49.266;7.104;2024-02-16T18:39:07;11.90;99.90
15184;DHT22;7693;49.266;7.104;2024-02-16T18:41:34;11.90;99.90
15184;DHT22;7693;49.266;7.104;2024-02-16T18:44:00;12.00;99.90
15184;DHT22;7693;49.266;7.104;2024-02-16T18:46:26;11.90;99.90
15184;DHT22;7693;49.266;7.104;2024-02-16T18:48:52;11.90;99.90
15184;DHT22;7693;49.266;7.104;2024-02-16T18:51:17;11.90;99.90
15184;DHT22;7693;49.266;7.104;2024-02-16T18:53:43;11.90;99.90
15184;DHT22;7693;49.266;7.104;2024-02-16T18:56:09;11.90;99.90
15184;DHT22;7693;49.266;7.104;2024-02-16T18:58:35;11.90;99.90
15184;DHT22;7693;49.266;7.104;2024-02-16T19:01:01;11.90;99.90
15184;DHT22;7693;49.266;7.104;2024-02-16T19:03:27;11.90;99.90
15184;DHT22;7693;49.266;7.104;2024-02-16T19:05:52;11.90;99.90
15184;DHT22;7693;49.266;7.104;2024-02-16T19:08:18;11.90;99.90
15184;DHT22;7693;49.266;7.104;2024-02-16T19:10:44;11.90;99.90
15184;DHT22;7693;49.266;7.104;2024-02-16T19:13:10;11.90;99.90
15184;DHT22;7693;49.266;7.104;2024-02-16T19:15:37;11.90;99.90
15184;DHT22;7693;49.266;7.104;2024-02-16T19:18:03;11.90;99.90
15184;DHT22;7693;49.266;7.104;2024-02-16T19:20:29;11.80;99.90
15184;DHT22;7693;49.266;7.104;2024-02-16T19:22:59;11.80;99.90
15184;DHT22;7693;49.266;7.104;2024-02-16T19:25:25;11.80;99.90
15184;DHT22;7693;49.266;7.104;2024-02-16T19:27:51;11.80;99.90
15184;DHT22;7693;49.266;7.104;2024-02-16T19:30:18;11.80;99.90
15184;DHT22;7693;49.266;7.104;2024-02-16T19:32:44;11.80;99.90
15184;DHT22;7693;49.266;7.104;2024-02-16T19:35:10;11.80;99.90
15184;DHT22;7693;49.266;7.104;2024-02-16T19:37:42;11.80;99.90
15184;DHT22;7693;49.266;7.104;2024-02-16T19:40:09;11.80;99.90
15184;DHT22;7693;49.266;7.104;2024-02-16T19:42:35;11.80;99.90
15184;DHT22;7693;49.266;7.104;2024-02-16T19:45:00;11.80;99.90
15184;DHT22;7693;49.266;7.104;2024-02-16T19:47:26;11.80;99.90
15184;DHT22;7693;49.266;7.104;2024-02-16T19:49:51;11.80;99.90
15184;DHT22;7693;49.266;7.104;2024-02-16T19:52:17;11.80;99.90
15184;DHT22;7693;49.266;7.104;2024-02-16T19:54:48;11.80;99.90
15184;DHT22;7693;49.266;7.104;2024-02-16T19:57:13;11.80;99.90
15184;DHT22;7693;49.266;7.104;2024-02-16T19:59:39;11.80;99.90
15184;DHT22;7693;49.266;7.104;2024-02-16T20:02:05;11.80;99.90
15184;DHT22;7693;49.266;7.104;2024-02-16T20:04:31;11.80;99.90
15184;DHT22;7693;49.266;7.104;2024-02-16T20:06:59;11.80;99.90
15184;DHT22;7693;49.266;7.104;2024-02-16T20:09:25;11.80;99.90
15184;DHT22;7693;49.266;7.104;2024-02-16T20:11:52;11.80;99.90
15184;DHT22;7693;49.266;7.104;2024-02-16T20:14:18;11.80;99.90
15184;DHT22;7693;49.266;7.104;2024-02-16T20:16:44;11.80;99.90
15184;DHT22;7693;49.266;7.104;2024-02-16T20:19:09;11.80;99.90
15184;DHT22;7693;49.266;7.104;2024-02-16T20:21:38;11.80;99.90
15184;DHT22;7693;49.266;7.104;2024-02-16T20:24:04;11.80;99.90
15184;DHT22;7693;49.266;7.104;2024-02-16T20:26:30;11.80;99.90
15184;DHT22;7693;49.266;7.104;2024-02-16T20:28:59;11.80;99.90
15184;DHT22;7693;49.266;7.104;2024-02-16T20:31:30;11.80;99.90
15184;DHT22;7693;49.266;7.104;2024-02-16T20:33:56;11.80;99.90
15184;DHT22;7693;49.266;7.104;2024-02-16T20:36:21;11.80;99.90
15184;DHT22;7693;49.266;7.104;2024-02-16T20:38:48;11.80;99.90
15184;DHT22;7693;49.266;7.104;2024-02-16T20:41:15;11.80;99.90
15184;DHT22;7693;49.266;7.104;2024-02-16T20:43:42;11.80;99.90
15184;DHT22;7693;49.266;7.104;2024-02-16T20:46:08;11.80;99.90
15184;DHT22;7693;49.266;7.104;2024-02-16T20:48:36;11.80;99.90
15184;DHT22;7693;49.266;7.104;2024-02-16T20:51:02;11.80;99.90
15184;DHT22;7693;49.266;7.104;2024-02-16T20:53:28;11.80;99.90
15184;DHT22;7693;49.266;7.104;2024-02-16T20:55:55;11.80;99.90
15184;DHT22;7693;49.266;7.104;2024-02-16T20:58:21;11.80;99.90
15184;DHT22;7693;49.266;7.104;2024-02-16T21:00:46;11.80;99.90
15184;DHT22;7693;49.266;7.104;2024-02-16T21:03:12;11.80;99.90
15184;DHT22;7693;49.266;7.104;2024-02-16T21:05:38;11.80;99.90
15184;DHT22;7693;49.266;7.104;2024-02-16T21:08:04;11.80;99.90
15184;DHT22;7693;49.266;7.104;2024-02-16T21:10:29;11.90;99.90
15184;DHT22;7693;49.266;7.104;2024-02-16T21:12:55;11.90;99.90
15184;DHT22;7693;49.266;7.104;2024-02-16T21:15:21;11.90;99.90
15184;DHT22;7693;49.266;7.104;2024-02-16T21:17:48;11.90;99.90
15184;DHT22;7693;49.266;7.104;2024-02-16T21:20:14;11.90;99.90
15184;DHT22;7693;49.266;7.104;2024-02-16T21:22:40;11.90;99.90
15184;DHT22;7693;49.266;7.104;2024-02-16T21:25:06;11.90;99.90
15184;DHT22;7693;49.266;7.104;2024-02-16T21:27:32;11.90;99.90
15184;DHT22;7693;49.266;7.104;2024-02-16T21:29:59;11.90;99.90
15184;DHT22;7693;49.266;7.104;2024-02-16T21:32:25;11.90;99.90
15184;DHT22;7693;49.266;7.104;2024-02-16T21:34:51;11.90;99.90
15184;DHT22;7693;49.266;7.104;2024-02-16T21:37:17;11.80;99.90
15184;DHT22;7693;49.266;7.104;2024-02-16T21:39:44;11.90;99.90
15184;DHT22;7693;49.266;7.104;2024-02-16T21:42:10;11.90;99.90
15184;DHT22;7693;49.266;7.104;2024-02-16T21:44:37;11.90;99.90
15184;DHT22;7693;49.266;7.104;2024-02-16T21:47:05;11.90;99.90
15184;DHT22;7693;49.266;7.104;2024-02-16T21:49:32;11.90;99.90
15184;DHT22;7693;49.266;7.104;2024-02-16T21:51:57;11.90;99.90
15184;DHT22;7693;49.266;7.104;2024-02-16T21:54:23;11.90;99.90
15184;DHT22;7693;49.266;7.104;2024-02-16T21:56:48;11.90;99.90
15184;DHT22;7693;49.266;7.104;2024-02-16T21:59:14;11.90;99.90
15184;DHT22;7693;49.266;7.104;2024-02-16T22:01:40;11.90;99.90
15184;DHT22;7693;49.266;7.104;2024-02-16T22:04:06;11.90;99.90
15184;DHT22;7693;49.266;7.104;2024-02-16T22:06:31;11.90;99.90
15184;DHT22;7693;49.266;7.104;2024-02-16T22:08:57;11.90;99.90
15184;DHT22;7693;49.266;7.104;2024-02-16T22:11:24;11.90;99.90
15184;DHT22;7693;49.266;7.104;2024-02-16T22:13:50;11.90;99.90
15184;DHT22;7693;49.266;7.104;2024-02-16T22:16:17;11.90;99.90
15184;DHT22;7693;49.266;7.104;2024-02-16T22:18:43;11.90;99.90
15184;DHT22;7693;49.266;7.104;2024-02-16T22:21:10;11.90;99.90
15184;DHT22;7693;49.266;7.104;2024-02-16T22:23:36;11.90;99.90
15184;DHT22;7693;49.266;7.104;2024-02-16T22:26:06;11.90;99.90
15184;DHT22;7693;49.266;7.104;2024-02-16T22:28:32;11.90;99.90
15184;DHT22;7693;49.266;7.104;2024-02-16T22:30:58;11.90;99.90
15184;DHT22;7693;49.266;7.104;2024-02-16T22:33:24;11.90;99.90
15184;DHT22;7693;49.266;7.104;2024-02-16T22:35:54;11.90;99.90
15184;DHT22;7693;49.266;7.104;2024-02-16T22:38:20;11.90;99.90
15184;DHT22;7693;49.266;7.104;2024-02-16T22:40:50;11.90;99.90
15184;DHT22;7693;49.266;7.104;2024-02-16T22:43:16;11.90;99.90
15184;DHT22;7693;49.266;7.104;2024-02-16T22:45:42;11.90;99.90
15184;DHT22;7693;49.266;7.104;2024-02-16T22:48:08;11.90;99.90
15184;DHT22;7693;49.266;7.104;2024-02-16T22:50:37;11.80;99.90
15184;DHT22;7693;49.266;7.104;2024-02-16T22:53:04;11.80;99.90
15184;DHT22;7693;49.266;7.104;2024-02-16T22:55:29;11.80;99.90
15184;DHT22;7693;49.266;7.104;2024-02-16T22:57:55;11.80;99.90
15184;DHT22;7693;49.266;7.104;2024-02-16T23:00:21;11.80;99.90
15184;DHT22;7693;49.266;7.104;2024-02-16T23:02:51;11.80;99.90
15184;DHT22;7693;49.266;7.104;2024-02-16T23:05:19;11.70;99.90
15184;DHT22;7693;49.266;7.104;2024-02-16T23:07:45;11.70;99.90
15184;DHT22;7693;49.266;7.104;2024-02-16T23:10:12;11.70;99.90
15184;DHT22;7693;49.266;7.104;2024-02-16T23:12:39;11.70;99.90
15184;DHT22;7693;49.266;7.104;2024-02-16T23:15:08;11.70;99.90
15184;DHT22;7693;49.266;7.104;2024-02-16T23:17:33;11.70;99.90
15184;DHT22;7693;49.266;7.104;2024-02-16T23:19:59;11.70;99.90
15184;DHT22;7693;49.266;7.104;2024-02-16T23:22:25;11.70;99.90
15184;DHT22;7693;49.266;7.104;2024-02-16T23:24:51;11.60;99.90
15184;DHT22;7693;49.266;7.104;2024-02-16T23:27:16;11.60;99.90
15184;DHT22;7693;49.266;7.104;2024-02-16T23:29:42;11.60;99.90
15184;DHT22;7693;49.266;7.104;2024-02-16T23:32:08;11.60;99.90
15184;DHT22;7693;49.266;7.104;2024-02-16T23:34:34;11.60;99.90
15184;DHT22;7693;49.266;7.104;2024-02-16T23:36:59;11.60;99.90
15184;DHT22;7693;49.266;7.104;2024-02-16T23:39:25;11.60;99.90
15184;DHT22;7693;49.266;7.104;2024-02-16T23:41:51;11.60;99.90
15184;DHT22;7693;49.266;7.104;2024-02-16T23:44:16;11.60;99.90
15184;DHT22;7693;49.266;7.104;2024-02-16T23:46:42;11.60;99.90
15184;DHT22;7693;49.266;7.104;2024-02-16T23:49:08;11.50;99.90
15184;DHT22;7693;49.266;7.104;2024-02-16T23:51:33;11.50;99.90
